DBBB

Details ICAO DBBB (COO)
Name CADJEHOUN
Region Benin
Timezone Africa/Porto-Novo (UTC+1.0)
Plans Departing 37
Arriving 52
Stats Elevation 19 ft / 6 m (AMSL)
Location 6.357227° 2.384353°
Runways 1
Magnetic Variation 2.522° W
Sunrise 2017-12-13 05:53:21 UTC / 2017-12-13 06:53:21 Local
Sunset 2017-12-13 17:38:48 UTC / 2017-12-13 18:38:48 Local
Advertisement - Login to hide

Runways

ID Width Length Bearing (true) Bearing (mag) Surface Threshold Offset Overrun Length
06 148 ft / 45 m 7,887 ft / 2,404 m 52.94° 55.46° Asphalt 125 ft / 38 m 199 ft / 61 m
24 148 ft / 45 m 7,887 ft / 2,404 m 232.94° 235.46° Asphalt 0 ft / 0 m 416 ft / 127 m

Approach Navaids

Runway Type Ident Frequency Range Bearing (true) Bearing (mag) Slope Elevation
24 Localiser ICN 109.50 MHz 18 nm / 33 km 232.72° 235.25° - 19 ft / 6 m (AMSL)
24 Glidescope ICN 109.50 MHz 10 nm / 19 km 232.94° 235.47° 3.00° 19 ft / 6 m (AMSL)
24 DME ICN 109.50 MHz 18 nm / 33 km - - - 19 ft / 6 m (AMSL)

Map

Weather


0- 5 10 15 20 25 30 35+ Temperature / ° C

Clouds and Precipitation
Forecast for 2017-12-13 00:00 UTC. Updated an hour ago

Ground ~20,000 ft ~40,000 ft Winds

METAR

DBBB 122300Z 20004KT 2500 HZ FEW010 28/24 Q1012 NOSIG

TAF

TAF DBBB 122300Z 1300/1406 VRB03KT 2200 HZ NSC TEMPO 1304/1309 1200 BR PROB30 0500 FG OVC006

Frequencies

Tower 125.90 MHz TWR
Approach 125.90 MHz APP
Tower 118.70 MHz TWR
Warning: Do not use this data for real-world aviation or navigation. No guarantee of current accuracy is given.